« Back
NWS Peachtree City, Ga » Text Product » ATL Terminal Aerodrome Forecast


Printer-friendly Version
Current Version              Previous Versions:   1  2  3  4  5  6  7  8  9  

Terminal Aerodrome Forecast

433
FTUS42 KFFC 301351 AAA
TAFATL
TAF AMD
KATL 301351Z 3014/3118 28007KT P6SM SCT030 SCT250
     FM301500 28007KT P6SM BKN035
     FM301800 27009KT P6SM BKN050
      TEMPO 3019/3023 5SM -TSRA BKN035CB
     FM310000 24005KT P6SM SCT070 SCT250
     FM311400 26006KT P6SM SCT040=

USA.gov is the U.S. government's official web portal to all federal, state and local government web resources and services.